Time;durP1;ratioP1;P1;durP2;ratioP2;P2;SDS_P1;SDS_P2;PMS_P1;PMS_P2;Temp;Humidity;BMP_temperature;BMP_pressure;BME280_temperature;BME280_humidity;BME280_pressure;Samples;Min_cycle;Max_cycle;Signal;HPM_P1;HPM_P2
2023/08/23 00:02:04;;;;;;;2.45;2.20;;;;;;;;;;5006613;28;20214;-84
2023/08/23 00:04:34;;;;;;;2.15;1.95;;;;;;;;;;5025502;28;20276;-83
2023/08/23 00:07:02;;;;;;;2.65;2.40;;;;;;;;;;5017349;28;20214;-83
2023/08/23 00:09:28;;;;;;;2.50;2.30;;;;;;;;;;5047454;28;20229;-83
2023/08/23 00:11:56;;;;;;;3.97;2.60;;;;;;;;;;5027588;28;20211;-84
2023/08/23 00:14:24;;;;;;;2.35;2.17;;;;;;;;;;4995943;28;20223;-83
2023/08/23 00:16:52;;;;;;;3.40;2.00;;;;;;;;;;5035235;28;20215;-83
2023/08/23 00:19:20;;;;;;;2.22;1.98;;;;;;;;;;5038397;28;20225;-85
2023/08/23 00:21:48;;;;;;;2.33;2.03;;;;;;;;;;5020781;28;20710;-84
2023/08/23 00:24:16;;;;;;;2.35;2.05;;;;;;;;;;5025569;28;20286;-83
2023/08/23 00:26:44;;;;;;;2.00;1.80;;;;;;;;;;5049241;28;20206;-83
2023/08/23 00:29:09;;;;;;;3.15;1.77;;;;;;;;;;5022811;28;20615;-84
2023/08/23 00:31:37;;;;;;;1.98;1.88;;;;;;;;;;5029345;28;20222;-84
2023/08/23 00:34:05;;;;;;;4.70;2.10;;;;;;;;;;5003694;28;20218;-84
2023/08/23 00:36:30;;;;;;;2.38;1.70;;;;;;;;;;5018881;28;20223;-84
2023/08/23 00:38:57;;;;;;;4.05;2.22;;;;;;;;;;5018705;28;20679;-84
2023/08/23 00:41:26;;;;;;;5.43;2.58;;;;;;;;;;5004610;28;20227;-83
2023/08/23 00:43:53;;;;;;;2.72;2.10;;;;;;;;;;5009172;28;20204;-84
2023/08/23 00:46:18;;;;;;;5.68;2.22;;;;;;;;;;5009543;28;20264;-83
2023/08/23 00:48:46;;;;;;;2.35;2.15;;;;;;;;;;5035632;28;20250;-84
2023/08/23 00:51:12;;;;;;;2.33;2.22;;;;;;;;;;5014550;28;20272;-84
2023/08/23 00:53:38;;;;;;;6.15;2.30;;;;;;;;;;5018239;28;20703;-84
2023/08/23 00:56:04;;;;;;;2.78;2.55;;;;;;;;;;5030561;28;20210;-85
2023/08/23 00:58:29;;;;;;;2.45;2.25;;;;;;;;;;5017997;28;20227;-84
2023/08/23 01:00:57;;;;;;;2.85;2.58;;;;;;;;;;5021984;28;20221;-83
2023/08/23 01:03:23;;;;;;;2.80;2.47;;;;;;;;;;5018694;28;20230;-84
2023/08/23 01:06:26;;;;;;;2.58;2.38;;;;;;;;;;5021681;28;20248;-83
2023/08/23 01:09:05;;;;;;;3.35;3.05;;;;;;;;;;5035168;28;20222;-83
2023/08/23 01:11:33;;;;;;;3.08;2.50;;;;;;;;;;5036370;28;20222;-83
2023/08/23 01:14:11;;;;;;;2.58;2.30;;;;;;;;;;5031366;28;20245;-84
2023/08/23 01:16:39;;;;;;;3.95;2.38;;;;;;;;;;5052860;28;20225;-83
2023/08/23 01:19:13;;;;;;;3.08;1.83;;;;;;;;;;5022315;28;20219;-83
2023/08/23 01:21:38;;;;;;;2.08;1.77;;;;;;;;;;5016819;28;20219;-84
2023/08/23 01:24:08;;;;;;;4.15;1.80;;;;;;;;;;5013783;28;20683;-83
2023/08/23 01:26:45;;;;;;;1.73;1.63;;;;;;;;;;5013369;28;20249;-84
2023/08/23 01:29:13;;;;;;;1.88;1.73;;;;;;;;;;5041261;28;20234;-83
2023/08/23 01:31:42;;;;;;;2.58;1.90;;;;;;;;;;5034308;28;20226;-84
2023/08/23 01:34:23;;;;;;;8.55;2.10;;;;;;;;;;5047617;28;20711;-83
2023/08/23 01:36:53;;;;;;;3.55;2.13;;;;;;;;;;5058259;28;20265;-84
2023/08/23 01:39:18;;;;;;;2.33;2.13;;;;;;;;;;5018408;28;20298;-84
2023/08/23 01:41:46;;;;;;;2.83;2.63;;;;;;;;;;5035980;28;20646;-84
2023/08/23 01:44:11;;;;;;;3.25;2.95;;;;;;;;;;5022106;28;20210;-84
2023/08/23 01:46:37;;;;;;;2.72;2.53;;;;;;;;;;5018110;28;20223;-84
2023/08/23 01:49:03;;;;;;;3.15;2.60;;;;;;;;;;5039194;28;20303;-84
2023/08/23 01:51:38;;;;;;;2.10;1.90;;;;;;;;;;5017066;28;20231;-83
2023/08/23 01:54:08;;;;;;;1.80;1.42;;;;;;;;;;5020601;28;20812;-84
2023/08/23 01:56:34;;;;;;;2.45;1.83;;;;;;;;;;5047151;28;20318;-84
2023/08/23 01:59:04;;;;;;;1.80;1.70;;;;;;;;;;5011890;28;20219;-84
2023/08/23 02:01:32;;;;;;;1.95;1.85;;;;;;;;;;5018938;28;20224;-83
2023/08/23 02:03:58;;;;;;;2.22;2.03;;;;;;;;;;5013459;28;20226;-84
2023/08/23 02:06:23;;;;;;;2.08;1.90;;;;;;;;;;5047725;28;20225;-84
2023/08/23 02:08:50;;;;;;;3.42;2.20;;;;;;;;;;5039261;28;20277;-83
2023/08/23 02:11:19;;;;;;;2.60;2.40;;;;;;;;;;5015302;28;20219;-84
2023/08/23 02:13:44;;;;;;;2.80;2.45;;;;;;;;;;5028440;28;20218;-83
2023/08/23 02:16:10;;;;;;;2.75;2.55;;;;;;;;;;5038481;28;20260;-84
2023/08/23 02:18:35;;;;;;;2.20;2.00;;;;;;;;;;5022155;28;20219;-83
2023/08/23 02:21:01;;;;;;;2.55;2.13;;;;;;;;;;5018231;28;20215;-84
2023/08/23 02:23:29;;;;;;;2.33;2.05;;;;;;;;;;5015609;28;20223;-83
2023/08/23 02:25:57;;;;;;;2.47;2.28;;;;;;;;;;5036788;28;20218;-83
2023/08/23 02:28:24;;;;;;;3.00;2.28;;;;;;;;;;5030041;28;20229;-83
2023/08/23 02:30:55;;;;;;;5.13;2.70;;;;;;;;;;5034779;28;20223;-84
2023/08/23 02:33:20;;;;;;;2.70;2.50;;;;;;;;;;5023722;28;20218;-83
2023/08/23 02:35:48;;;;;;;5.60;3.00;;;;;;;;;;5032350;28;20600;-84
2023/08/23 02:38:19;;;;;;;2.85;2.65;;;;;;;;;;5053675;28;20217;-84
2023/08/23 02:40:47;;;;;;;3.65;3.10;;;;;;;;;;5022325;28;20705;-82
2023/08/23 02:43:17;;;;;;;2.50;2.30;;;;;;;;;;5039340;28;20221;-84
2023/08/23 02:45:43;;;;;;;2.22;2.03;;;;;;;;;;5020770;28;20219;-84
2023/08/23 02:48:09;;;;;;;2.25;1.98;;;;;;;;;;5030372;28;20221;-84
2023/08/23 02:50:34;;;;;;;2.90;2.60;;;;;;;;;;5014035;28;20224;-84
2023/08/23 02:53:00;;;;;;;2.90;2.65;;;;;;;;;;5020495;28;20417;-84
2023/08/23 02:55:28;;;;;;;3.08;2.70;;;;;;;;;;5011244;28;20219;-83
2023/08/23 02:57:56;;;;;;;3.67;2.47;;;;;;;;;;5039948;28;21101;-83
2023/08/23 03:00:21;;;;;;;2.50;2.30;;;;;;;;;;5016536;28;20271;-83
2023/08/23 03:02:47;;;;;;;4.00;3.05;;;;;;;;;;5027640;28;20229;-83
2023/08/23 03:05:14;;;;;;;3.00;2.80;;;;;;;;;;5017901;28;20218;-82
2023/08/23 03:07:43;;;;;;;2.30;2.17;;;;;;;;;;5038070;28;20745;-82
2023/08/23 03:10:10;;;;;;;2.63;2.42;;;;;;;;;;5021319;28;20229;-84
2023/08/23 03:12:38;;;;;;;2.13;1.92;;;;;;;;;;5010629;28;20231;-83
2023/08/23 03:15:06;;;;;;;2.15;1.92;;;;;;;;;;5030319;28;20692;-83
2023/08/23 03:17:32;;;;;;;1.73;1.63;;;;;;;;;;5000516;28;20215;-84
2023/08/23 03:19:58;;;;;;;4.45;1.90;;;;;;;;;;5014970;28;20561;-83
2023/08/23 03:22:24;;;;;;;2.70;1.75;;;;;;;;;;5002920;28;20225;-84
2023/08/23 03:24:52;;;;;;;1.85;1.75;;;;;;;;;;5011929;28;20597;-84
2023/08/23 03:27:21;;;;;;;2.20;2.00;;;;;;;;;;5010882;28;20219;-84
2023/08/23 03:29:48;;;;;;;8.73;2.40;;;;;;;;;;5034937;28;20272;-84
2023/08/23 03:32:14;;;;;;;2.33;2.13;;;;;;;;;;5021935;28;20217;-84
2023/08/23 03:34:39;;;;;;;4.25;2.08;;;;;;;;;;5030368;28;20222;-84
2023/08/23 03:37:06;;;;;;;2.00;1.80;;;;;;;;;;5036714;28;20229;-84
2023/08/23 03:39:31;;;;;;;2.33;2.13;;;;;;;;;;5037100;28;20239;-84
2023/08/23 03:41:57;;;;;;;2.10;2.00;;;;;;;;;;5015286;28;20238;-85
2023/08/23 03:44:22;;;;;;;3.03;2.53;;;;;;;;;;5019792;28;20294;-85
2023/08/23 03:46:48;;;;;;;4.75;3.45;;;;;;;;;;5029345;28;20218;-84
2023/08/23 03:49:16;;;;;;;5.03;2.75;;;;;;;;;;5004212;28;20222;-83
2023/08/23 03:51:42;;;;;;;6.05;3.50;;;;;;;;;;5049428;28;20944;-84
2023/08/23 03:54:10;;;;;;;2.70;2.28;;;;;;;;;;5019334;28;20280;-84
2023/08/23 03:56:35;;;;;;;3.03;2.25;;;;;;;;;;5015511;28;20212;-85
2023/08/23 03:59:01;;;;;;;2.40;2.20;;;;;;;;;;5020969;28;20669;-83
2023/08/23 04:05:14;;;;;;;2.90;2.60;;;;;;;;;;5068845;28;20264;-84
2023/08/23 04:07:40;;;;;;;3.25;3.00;;;;;;;;;;5024124;28;20247;-85
2023/08/23 04:10:06;;;;;;;4.25;3.80;;;;;;;;;;5022253;28;20265;-85
2023/08/23 04:12:33;;;;;;;3.92;3.63;;;;;;;;;;5017572;28;20231;-84
2023/08/23 04:14:59;;;;;;;5.78;4.05;;;;;;;;;;5019827;28;20211;-85
2023/08/23 04:17:24;;;;;;;6.35;4.90;;;;;;;;;;5000224;28;20219;-84
2023/08/23 04:19:55;;;;;;;2.17;2.03;;;;;;;;;;5025790;28;20242;-85
2023/08/23 04:22:22;;;;;;;2.58;2.10;;;;;;;;;;5029290;28;20215;-86
2023/08/23 04:24:49;;;;;;;1.77;1.50;;;;;;;;;;4995774;28;20304;-85
2023/08/23 04:27:14;;;;;;;2.65;1.80;;;;;;;;;;4995201;28;20294;-85
2023/08/23 04:29:40;;;;;;;2.38;2.17;;;;;;;;;;5019221;28;20245;-85
2023/08/23 04:32:12;;;;;;;2.60;2.40;;;;;;;;;;5012347;28;20223;-85
2023/08/23 04:34:38;;;;;;;1.90;1.80;;;;;;;;;;5031572;28;20228;-85
2023/08/23 04:37:05;;;;;;;2.05;1.83;;;;;;;;;;5037084;28;20293;-84
2023/08/23 04:39:30;;;;;;;1.88;1.65;;;;;;;;;;5015334;28;20708;-84
2023/08/23 04:41:56;;;;;;;2.70;2.50;;;;;;;;;;5015529;28;20215;-85
2023/08/23 04:44:22;;;;;;;3.05;2.75;;;;;;;;;;5029721;28;20725;-85
2023/08/23 04:46:49;;;;;;;4.88;3.97;;;;;;;;;;4998042;28;20224;-85
2023/08/23 04:49:18;;;;;;;6.13;4.25;;;;;;;;;;5051879;28;20242;-84
2023/08/23 04:51:44;;;;;;;8.18;4.65;;;;;;;;;;5014946;28;20217;-83
2023/08/23 04:54:09;;;;;;;4.55;3.90;;;;;;;;;;5034888;28;20214;-85
2023/08/23 04:56:37;;;;;;;6.50;4.70;;;;;;;;;;5022165;28;20695;-84
2023/08/23 04:59:06;;;;;;;6.47;3.40;;;;;;;;;;5035561;28;20298;-84
2023/08/23 05:01:31;;;;;;;3.78;3.50;;;;;;;;;;5012318;28;20649;-85
2023/08/23 05:03:59;;;;;;;6.38;4.55;;;;;;;;;;5006087;28;20227;-86
2023/08/23 05:06:25;;;;;;;4.75;3.75;;;;;;;;;;5011770;28;20263;-83
2023/08/23 05:08:52;;;;;;;2.22;1.83;;;;;;;;;;5016373;28;20600;-85
2023/08/23 05:11:24;;;;;;;3.50;2.17;;;;;;;;;;4999890;28;20227;-85
2023/08/23 05:13:53;;;;;;;2.92;2.10;;;;;;;;;;5016505;28;20230;-84
2023/08/23 05:16:22;;;;;;;2.20;1.70;;;;;;;;;;5014051;28;20661;-83
2023/08/23 05:18:48;;;;;;;3.35;2.10;;;;;;;;;;5045295;28;20542;-84
2023/08/23 05:21:15;;;;;;;3.08;2.30;;;;;;;;;;5030833;28;20211;-84
2023/08/23 05:23:41;;;;;;;3.33;2.65;;;;;;;;;;5038401;28;20233;-85
2023/08/23 05:26:08;;;;;;;4.85;2.70;;;;;;;;;;5023697;28;20306;-83
2023/08/23 05:28:34;;;;;;;8.60;3.05;;;;;;;;;;5018986;28;20227;-84
2023/08/23 05:31:03;;;;;;;7.55;2.65;;;;;;;;;;5013366;28;20227;-84
2023/08/23 05:33:35;;;;;;;3.28;2.97;;;;;;;;;;5020824;28;20234;-83
2023/08/23 05:36:02;;;;;;;3.40;3.00;;;;;;;;;;5017261;28;21628;-84
2023/08/23 05:38:31;;;;;;;8.52;3.58;;;;;;;;;;5036149;28;20699;-85
2023/08/23 05:40:58;;;;;;;4.32;3.90;;;;;;;;;;5014841;28;20221;-85
2023/08/23 05:43:25;;;;;;;4.00;3.70;;;;;;;;;;5021988;28;20225;-84
2023/08/23 05:45:53;;;;;;;5.63;3.95;;;;;;;;;;5034061;28;20223;-85
2023/08/23 05:48:23;;;;;;;4.22;3.92;;;;;;;;;;5007508;28;20231;-85
2023/08/23 05:50:49;;;;;;;4.15;3.70;;;;;;;;;;5015367;28;20218;-85
2023/08/23 05:53:19;;;;;;;8.27;4.60;;;;;;;;;;5023874;28;20277;-84
2023/08/23 05:55:48;;;;;;;4.63;4.22;;;;;;;;;;5022421;28;20234;-84
2023/08/23 05:58:18;;;;;;;4.28;3.88;;;;;;;;;;5023535;28;20221;-85
2023/08/23 06:00:44;;;;;;;6.05;4.18;;;;;;;;;;5014586;28;20234;-83
2023/08/23 06:03:14;;;;;;;4.45;4.05;;;;;;;;;;5020815;28;20218;-85
2023/08/23 06:05:41;;;;;;;6.07;4.03;;;;;;;;;;5021946;28;20228;-85
2023/08/23 06:08:08;;;;;;;7.72;4.65;;;;;;;;;;5026191;28;20891;-85
2023/08/23 06:10:36;;;;;;;5.03;4.53;;;;;;;;;;5021976;28;20904;-83
2023/08/23 06:13:05;;;;;;;12.32;4.43;;;;;;;;;;5055723;28;20223;-86
2023/08/23 06:15:32;;;;;;;4.22;3.80;;;;;;;;;;5036961;28;20215;-85
2023/08/23 06:17:58;;;;;;;5.85;4.22;;;;;;;;;;5048818;28;20218;-86
2023/08/23 06:20:24;;;;;;;5.03;4.50;;;;;;;;;;5034936;28;20221;-86
2023/08/23 06:22:50;;;;;;;4.78;4.22;;;;;;;;;;5019235;28;20584;-84
2023/08/23 06:25:15;;;;;;;10.18;9.18;;;;;;;;;;5020273;28;20214;-85
2023/08/23 06:27:41;;;;;;;11.10;8.23;;;;;;;;;;5023448;28;20592;-84
2023/08/23 06:30:15;;;;;;;14.07;12.73;;;;;;;;;;5034996;28;20265;-85
2023/08/23 06:32:49;;;;;;;15.82;13.70;;;;;;;;;;5017207;28;20226;-85
2023/08/23 06:35:17;;;;;;;14.38;12.98;;;;;;;;;;5034995;28;20723;-85
2023/08/23 06:37:45;;;;;;;12.98;11.70;;;;;;;;;;5037589;28;20219;-85
2023/08/23 06:40:11;;;;;;;14.40;12.93;;;;;;;;;;5000285;28;20211;-86
2023/08/23 06:42:43;;;;;;;13.60;12.40;;;;;;;;;;5010151;28;20215;-85
2023/08/23 06:45:12;;;;;;;13.23;11.93;;;;;;;;;;5022015;28;20272;-85
2023/08/23 06:47:38;;;;;;;13.63;12.32;;;;;;;;;;5030945;28;20707;-84
2023/08/23 06:50:06;;;;;;;13.30;11.00;;;;;;;;;;5019423;28;20226;-86
2023/08/23 06:52:32;;;;;;;12.15;11.05;;;;;;;;;;5001455;28;20223;-85
2023/08/23 06:55:00;;;;;;;11.18;10.05;;;;;;;;;;5049682;28;20219;-86
2023/08/23 06:57:31;;;;;;;12.35;10.50;;;;;;;;;;5020239;28;20226;-84
2023/08/23 06:59:59;;;;;;;10.10;9.10;;;;;;;;;;5036808;28;20215;-85
2023/08/23 07:02:27;;;;;;;9.63;8.63;;;;;;;;;;5020929;28;20225;-84
2023/08/23 07:04:53;;;;;;;9.45;7.90;;;;;;;;;;5018819;28;20234;-85
2023/08/23 07:07:21;;;;;;;11.70;7.25;;;;;;;;;;5048697;28;20222;-84
2023/08/23 07:09:47;;;;;;;9.55;7.20;;;;;;;;;;5019899;28;20288;-84
2023/08/23 07:12:15;;;;;;;7.97;7.13;;;;;;;;;;5016623;28;20212;-85
2023/08/23 07:14:41;;;;;;;7.72;7.00;;;;;;;;;;5020581;28;20303;-84
2023/08/23 07:17:07;;;;;;;10.60;7.30;;;;;;;;;;5053293;28;20286;-84
2023/08/23 07:19:35;;;;;;;7.85;6.32;;;;;;;;;;5038770;28;20218;-84
2023/08/23 07:22:06;;;;;;;7.82;5.90;;;;;;;;;;5013157;28;20222;-84
2023/08/23 07:24:44;;;;;;;6.30;4.90;;;;;;;;;;5031407;28;20751;-86
2023/08/23 07:27:12;;;;;;;7.07;6.38;;;;;;;;;;5035490;28;20279;-84
2023/08/23 07:29:40;;;;;;;8.45;6.72;;;;;;;;;;5017896;28;20255;-86
2023/08/23 07:32:06;;;;;;;10.07;8.13;;;;;;;;;;5032470;28;20226;-85
2023/08/23 07:34:31;;;;;;;8.30;7.47;;;;;;;;;;5001247;28;20227;-85
2023/08/23 07:36:57;;;;;;;7.82;7.03;;;;;;;;;;5006596;28;20222;-85
2023/08/23 07:39:24;;;;;;;9.57;8.05;;;;;;;;;;5038605;28;20223;-85
2023/08/23 07:41:53;;;;;;;8.68;6.47;;;;;;;;;;5013274;28;20230;-85
2023/08/23 07:44:19;;;;;;;7.55;6.55;;;;;;;;;;5010932;28;20704;-85
2023/08/23 07:46:45;;;;;;;7.97;7.18;;;;;;;;;;5025001;28;20230;-84
2023/08/23 07:49:11;;;;;;;10.18;7.07;;;;;;;;;;5013070;28;20223;-86
2023/08/23 07:51:37;;;;;;;11.05;6.00;;;;;;;;;;5015287;28;20250;-85
2023/08/23 07:54:03;;;;;;;7.93;5.90;;;;;;;;;;5019007;28;20219;-84
2023/08/23 07:56:29;;;;;;;10.40;6.25;;;;;;;;;;5051674;28;20269;-84
2023/08/23 07:58:54;;;;;;;9.02;5.50;;;;;;;;;;5053311;28;20223;-84
2023/08/23 08:01:20;;;;;;;5.80;4.88;;;;;;;;;;5035783;28;20227;-84
2023/08/23 08:03:45;;;;;;;5.65;4.72;;;;;;;;;;5024797;28;20226;-82
2023/08/23 08:06:11;;;;;;;6.95;4.93;;;;;;;;;;5038374;28;20225;-82
2023/08/23 08:08:42;;;;;;;6.53;4.82;;;;;;;;;;5007581;28;20317;-85
2023/08/23 08:11:10;;;;;;;4.57;4.05;;;;;;;;;;5031189;28;20313;-85
2023/08/23 08:13:35;;;;;;;4.95;3.40;;;;;;;;;;5005770;28;20282;-85
2023/08/23 08:16:11;;;;;;;5.55;3.55;;;;;;;;;;5015480;28;20230;-86
2023/08/23 08:18:37;;;;;;;3.97;3.50;;;;;;;;;;5036158;28;20600;-87
2023/08/23 08:21:05;;;;;;;4.50;2.83;;;;;;;;;;5026952;28;20214;-85
2023/08/23 08:23:35;;;;;;;4.28;2.97;;;;;;;;;;5010258;28;20227;-85
2023/08/23 08:26:05;;;;;;;3.97;3.17;;;;;;;;;;5046373;28;20932;-86
2023/08/23 08:28:30;;;;;;;5.05;2.83;;;;;;;;;;5023797;28;20230;-86
2023/08/23 08:30:58;;;;;;;5.22;3.20;;;;;;;;;;5013911;28;21019;-86
2023/08/23 08:33:24;;;;;;;3.33;2.58;;;;;;;;;;5054703;28;20227;-86
2023/08/23 08:35:52;;;;;;;3.40;2.65;;;;;;;;;;5021608;28;20269;-85
2023/08/23 08:38:21;;;;;;;3.92;2.60;;;;;;;;;;5052131;28;20268;-85
2023/08/23 08:40:49;;;;;;;3.13;2.75;;;;;;;;;;5002751;28;20573;-85
2023/08/23 08:43:14;;;;;;;5.93;3.25;;;;;;;;;;5033984;28;20223;-85
2023/08/23 08:45:42;;;;;;;9.32;3.55;;;;;;;;;;5034547;28;20908;-83
2023/08/23 08:48:10;;;;;;;3.70;2.78;;;;;;;;;;5030393;28;20230;-84
2023/08/23 08:50:37;;;;;;;4.13;3.25;;;;;;;;;;5016050;28;20207;-85
2023/08/23 08:53:06;;;;;;;11.38;3.50;;;;;;;;;;5009131;28;21231;-85
2023/08/23 08:55:33;;;;;;;4.47;3.92;;;;;;;;;;5031473;28;20210;-80
2023/08/23 08:57:59;;;;;;;4.50;4.10;;;;;;;;;;5014138;28;20270;-85
2023/08/23 09:00:25;;;;;;;4.22;3.83;;;;;;;;;;4997807;28;20231;-87
2023/08/23 09:02:52;;;;;;;4.47;4.07;;;;;;;;;;5012585;28;20220;-85
2023/08/23 09:05:19;;;;;;;7.32;4.57;;;;;;;;;;5007956;28;20215;-85
2023/08/23 09:07:45;;;;;;;5.68;4.88;;;;;;;;;;5000703;28;20235;-83
2023/08/23 09:10:11;;;;;;;5.00;4.60;;;;;;;;;;5042940;28;20234;-83
2023/08/23 09:12:36;;;;;;;5.03;4.53;;;;;;;;;;5012053;28;20225;-85
2023/08/23 09:15:05;;;;;;;5.78;4.88;;;;;;;;;;5030454;28;20238;-85
2023/08/23 09:17:33;;;;;;;6.10;4.78;;;;;;;;;;5019705;28;20216;-85
2023/08/23 09:20:08;;;;;;;4.70;4.20;;;;;;;;;;5009720;28;20215;-84
2023/08/23 09:22:33;;;;;;;5.68;4.32;;;;;;;;;;5001109;28;20215;-83
2023/08/23 09:25:03;;;;;;;4.10;3.70;;;;;;;;;;4993535;28;20222;-85
2023/08/23 09:27:28;;;;;;;7.03;4.20;;;;;;;;;;5047462;28;20214;-85
2023/08/23 09:29:55;;;;;;;4.53;3.72;;;;;;;;;;5013133;28;20986;-85
2023/08/23 09:32:20;;;;;;;10.00;3.92;;;;;;;;;;5020793;28;20215;-86
2023/08/23 09:34:51;;;;;;;4.68;4.22;;;;;;;;;;5021290;28;20229;-84
2023/08/23 09:37:17;;;;;;;4.70;3.97;;;;;;;;;;5020172;28;20711;-85
2023/08/23 09:39:45;;;;;;;3.83;3.53;;;;;;;;;;5012195;28;20233;-86
2023/08/23 09:42:15;;;;;;;4.25;3.38;;;;;;;;;;5031203;28;20309;-87
2023/08/23 09:44:50;;;;;;;4.00;2.65;;;;;;;;;;5071785;28;20219;-88
2023/08/23 09:47:23;;;;;;;3.35;2.38;;;;;;;;;;5019793;28;20215;-83
2023/08/23 09:49:51;;;;;;;2.50;2.30;;;;;;;;;;5033660;28;20222;-87
2023/08/23 09:52:16;;;;;;;2.92;2.15;;;;;;;;;;5021584;28;20222;-84
2023/08/23 09:54:56;;;;;;;4.13;2.90;;;;;;;;;;5019639;28;20647;-84
2023/08/23 09:57:24;;;;;;;4.28;2.85;;;;;;;;;;5018090;28;20223;-85
2023/08/23 09:59:52;;;;;;;4.30;3.08;;;;;;;;;;5013858;28;20303;-85
2023/08/23 10:02:18;;;;;;;2.45;2.25;;;;;;;;;;5031324;28;20603;-86
2023/08/23 10:04:44;;;;;;;3.00;2.70;;;;;;;;;;5020292;28;20254;-85
2023/08/23 10:07:15;;;;;;;3.03;2.72;;;;;;;;;;5030215;28;20211;-89
2023/08/23 10:09:41;;;;;;;5.05;3.85;;;;;;;;;;5029391;28;20247;-85
2023/08/23 10:12:11;;;;;;;3.65;3.35;;;;;;;;;;5012112;28;20227;-84
2023/08/23 10:14:39;;;;;;;3.40;3.10;;;;;;;;;;5018953;28;20223;-86
2023/08/23 10:17:08;;;;;;;4.85;3.50;;;;;;;;;;5011286;28;20219;-85
2023/08/23 10:19:36;;;;;;;3.63;3.22;;;;;;;;;;5033891;28;20257;-83
2023/08/23 10:22:04;;;;;;;4.38;3.08;;;;;;;;;;5034009;28;20227;-85
2023/08/23 10:24:37;;;;;;;3.85;2.70;;;;;;;;;;5050075;28;20226;-83
2023/08/23 10:27:07;;;;;;;5.80;2.30;;;;;;;;;;5013048;28;20211;-85
2023/08/23 10:29:34;;;;;;;2.60;2.38;;;;;;;;;;5031791;28;20734;-87
2023/08/23 10:32:04;;;;;;;2.70;2.50;;;;;;;;;;5015659;28;20210;-86
2023/08/23 10:34:29;;;;;;;2.67;2.47;;;;;;;;;;5015512;28;20303;-82
2023/08/23 10:36:59;;;;;;;3.15;2.85;;;;;;;;;;5028239;28;20214;-84
2023/08/23 10:39:27;;;;;;;3.20;2.72;;;;;;;;;;5011736;28;20256;-83
2023/08/23 10:41:56;;;;;;;3.63;2.45;;;;;;;;;;5032884;28;20261;-85
2023/08/23 10:44:22;;;;;;;2.92;2.60;;;;;;;;;;5016379;28;20219;-86
2023/08/23 10:46:50;;;;;;;3.10;2.60;;;;;;;;;;5035539;28;20223;-85
2023/08/23 10:49:16;;;;;;;2.75;2.35;;;;;;;;;;5018778;28;20215;-85
2023/08/23 10:51:49;;;;;;;2.30;2.10;;;;;;;;;;5033948;28;20223;-85
2023/08/23 10:54:17;;;;;;;3.80;2.15;;;;;;;;;;5018954;28;20899;-84
2023/08/23 10:56:43;;;;;;;3.45;2.00;;;;;;;;;;5067675;28;20230;-86
2023/08/23 10:59:11;;;;;;;2.67;2.40;;;;;;;;;;5028384;28;20684;-88
2023/08/23 11:01:39;;;;;;;3.60;2.08;;;;;;;;;;5034775;28;20210;-85
2023/08/23 11:04:07;;;;;;;3.35;2.22;;;;;;;;;;5034453;28;20319;-84
2023/08/23 11:06:35;;;;;;;2.13;1.80;;;;;;;;;;5030286;28;20246;-85
2023/08/23 11:09:02;;;;;;;3.72;2.00;;;;;;;;;;5034159;28;20238;-85
2023/08/23 11:11:28;;;;;;;2.17;1.90;;;;;;;;;;5050989;28;20234;-83
2023/08/23 11:13:54;;;;;;;2.83;2.17;;;;;;;;;;5024467;28;20239;-85
2023/08/23 11:16:22;;;;;;;1.90;1.73;;;;;;;;;;5011855;28;20563;-85
2023/08/23 11:18:50;;;;;;;2.28;2.08;;;;;;;;;;5032546;28;20306;-84
2023/08/23 11:21:17;;;;;;;2.58;1.65;;;;;;;;;;5012472;28;20264;-82
2023/08/23 11:23:44;;;;;;;1.65;1.40;;;;;;;;;;5021538;28;20731;-85
2023/08/23 11:26:10;;;;;;;3.05;1.55;;;;;;;;;;5045368;28;20210;-85
2023/08/23 11:28:35;;;;;;;1.50;1.40;;;;;;;;;;5038270;28;20222;-90
2023/08/23 11:31:06;;;;;;;1.85;1.60;;;;;;;;;;5038938;28;20634;-82
2023/08/23 11:33:33;;;;;;;3.15;1.80;;;;;;;;;;5068550;28;20237;-86
2023/08/23 11:35:59;;;;;;;2.60;1.60;;;;;;;;;;5030049;28;20256;-86
2023/08/23 11:38:30;;;;;;;1.90;1.80;;;;;;;;;;5018430;28;20215;-87
2023/08/23 11:40:59;;;;;;;2.25;1.90;;;;;;;;;;5004045;28;20225;-86
2023/08/23 11:43:32;;;;;;;1.92;1.83;;;;;;;;;;5014120;28;20223;-85
2023/08/23 11:45:59;;;;;;;2.50;1.75;;;;;;;;;;5021014;28;20258;-85
2023/08/23 11:48:25;;;;;;;4.80;1.80;;;;;;;;;;5018143;28;20601;-87
2023/08/23 11:50:51;;;;;;;1.92;1.75;;;;;;;;;;5039107;28;20211;-87
2023/08/23 11:53:19;;;;;;;3.55;2.00;;;;;;;;;;5006547;28;20333;-87
2023/08/23 11:55:45;;;;;;;2.10;1.75;;;;;;;;;;5035767;28;20700;-86
2023/08/23 11:58:10;;;;;;;5.53;1.98;;;;;;;;;;5002952;28;20215;-85
2023/08/23 12:00:40;;;;;;;1.83;1.40;;;;;;;;;;5036845;28;20238;-85
2023/08/23 12:03:08;;;;;;;3.03;2.00;;;;;;;;;;5010635;28;20222;-84
2023/08/23 12:05:34;;;;;;;1.90;1.80;;;;;;;;;;5014553;28;20222;-84
2023/08/23 12:08:03;;;;;;;2.40;1.92;;;;;;;;;;5037264;28;20266;-84
2023/08/23 12:10:29;;;;;;;1.92;1.70;;;;;;;;;;5029502;28;20226;-84
2023/08/23 12:12:55;;;;;;;6.10;2.10;;;;;;;;;;5044963;28;20222;-87
2023/08/23 12:15:20;;;;;;;2.53;1.88;;;;;;;;;;5031741;28;20283;-83
2023/08/23 12:17:46;;;;;;;1.90;1.70;;;;;;;;;;5017549;28;20252;-85
2023/08/23 12:20:14;;;;;;;2.20;2.00;;;;;;;;;;5032981;28;20215;-86
2023/08/23 12:22:50;;;;;;;2.13;1.70;;;;;;;;;;5021573;28;20219;-85
2023/08/23 12:25:18;;;;;;;4.97;1.90;;;;;;;;;;5055693;28;20301;-84
2023/08/23 12:27:46;;;;;;;2.95;2.05;;;;;;;;;;5032459;28;20283;-85
2023/08/23 12:30:12;;;;;;;3.70;1.80;;;;;;;;;;5067480;28;20199;-81
2023/08/23 12:32:39;;;;;;;3.33;1.90;;;;;;;;;;5030365;28;20214;-84
2023/08/23 12:35:06;;;;;;;2.53;1.90;;;;;;;;;;5018566;28;20278;-84
2023/08/23 12:37:34;;;;;;;2.45;2.03;;;;;;;;;;5013587;28;20338;-83
2023/08/23 12:40:00;;;;;;;2.05;1.83;;;;;;;;;;5002297;28;20222;-83
2023/08/23 12:42:25;;;;;;;2.63;1.83;;;;;;;;;;5014767;28;20297;-84
2023/08/23 12:44:51;;;;;;;3.67;2.15;;;;;;;;;;5031808;28;20538;-84
2023/08/23 12:47:16;;;;;;;2.53;2.00;;;;;;;;;;5019557;28;20206;-84
2023/08/23 12:49:44;;;;;;;3.03;2.00;;;;;;;;;;5018303;28;20234;-85
2023/08/23 12:52:15;;;;;;;3.92;1.92;;;;;;;;;;5018649;28;20223;-84
2023/08/23 12:54:40;;;;;;;2.30;1.70;;;;;;;;;;5034671;28;20230;-85
2023/08/23 12:57:06;;;;;;;3.10;1.58;;;;;;;;;;5037723;28;20208;-86
2023/08/23 12:59:34;;;;;;;2.17;1.65;;;;;;;;;;5023147;28;20302;-87
2023/08/23 13:02:00;;;;;;;4.95;1.80;;;;;;;;;;5042103;28;20744;-84
2023/08/23 13:04:30;;;;;;;1.50;1.40;;;;;;;;;;5007934;28;20225;-85
2023/08/23 13:06:56;;;;;;;2.40;1.52;;;;;;;;;;5011738;28;20214;-87
2023/08/23 13:09:24;;;;;;;1.73;1.55;;;;;;;;;;5003135;28;20293;-86
2023/08/23 13:11:55;;;;;;;4.60;2.00;;;;;;;;;;5038169;28;20218;-89
2023/08/23 13:14:23;;;;;;;2.90;1.58;;;;;;;;;;5022275;28;20597;-86
2023/08/23 13:16:48;;;;;;;4.07;2.03;;;;;;;;;;5017233;28;20222;-86
2023/08/23 13:19:17;;;;;;;2.85;1.85;;;;;;;;;;5057918;28;20214;-86
2023/08/23 13:21:42;;;;;;;1.70;1.60;;;;;;;;;;5024488;28;20219;-86
2023/08/23 13:24:18;;;;;;;2.55;1.83;;;;;;;;;;5036272;28;20227;-86
2023/08/23 13:26:45;;;;;;;2.88;1.90;;;;;;;;;;5035871;28;20268;-84
2023/08/23 13:29:11;;;;;;;1.60;1.48;;;;;;;;;;5021574;28;20215;-85
2023/08/23 13:31:39;;;;;;;4.30;1.58;;;;;;;;;;5018401;28;20215;-85
2023/08/23 13:34:06;;;;;;;4.45;1.85;;;;;;;;;;5009585;28;20686;-85
2023/08/23 13:36:33;;;;;;;1.90;1.70;;;;;;;;;;5018811;28;20231;-85
2023/08/23 13:38:59;;;;;;;3.17;1.70;;;;;;;;;;5028490;28;20210;-86
2023/08/23 13:41:26;;;;;;;2.80;1.83;;;;;;;;;;5035171;28;20226;-86
2023/08/23 13:43:52;;;;;;;1.60;1.50;;;;;;;;;;5028173;28;20235;-83
2023/08/23 13:46:17;;;;;;;2.00;1.80;;;;;;;;;;5006470;28;20744;-86
2023/08/23 13:48:44;;;;;;;1.77;1.45;;;;;;;;;;5026339;28;20235;-85
2023/08/23 13:51:15;;;;;;;2.35;1.60;;;;;;;;;;5027423;28;20223;-86
2023/08/23 13:53:42;;;;;;;1.70;1.30;;;;;;;;;;5024857;28;20295;-84
2023/08/23 13:56:08;;;;;;;2.67;1.80;;;;;;;;;;5025010;28;20207;-87
2023/08/23 13:58:34;;;;;;;2.35;1.60;;;;;;;;;;5039176;28;20303;-85
2023/08/23 14:00:59;;;;;;;2.05;1.50;;;;;;;;;;5040207;28;20226;-84
2023/08/23 14:03:25;;;;;;;2.65;1.52;;;;;;;;;;5048416;28;20237;-85
2023/08/23 14:06:00;;;;;;;2.08;1.88;;;;;;;;;;5018430;28;20221;-86
2023/08/23 14:08:29;;;;;;;2.45;1.60;;;;;;;;;;5052095;28;20230;-85
2023/08/23 14:10:55;;;;;;;2.80;1.70;;;;;;;;;;5040907;28;20215;-86
2023/08/23 14:13:20;;;;;;;2.58;1.70;;;;;;;;;;5053372;28;20281;-86
2023/08/23 14:15:52;;;;;;;3.97;1.77;;;;;;;;;;5019093;28;20310;-87
2023/08/23 14:18:21;;;;;;;2.28;1.45;;;;;;;;;;5032148;28;20750;-85
2023/08/23 14:20:46;;;;;;;1.80;1.42;;;;;;;;;;5016674;28;20223;-86
2023/08/23 14:23:12;;;;;;;2.42;1.58;;;;;;;;;;5023878;28;20223;-87
2023/08/23 14:25:37;;;;;;;2.63;1.90;;;;;;;;;;5011179;28;20211;-87
2023/08/23 14:28:06;;;;;;;3.53;1.27;;;;;;;;;;5020312;28;20230;-86
2023/08/23 14:30:34;;;;;;;2.20;1.65;;;;;;;;;;5022024;28;20287;-85
2023/08/23 14:32:59;;;;;;;1.98;1.60;;;;;;;;;;5039237;28;20227;-86
2023/08/23 14:35:25;;;;;;;1.92;1.63;;;;;;;;;;5027599;28;20222;-86
2023/08/23 14:37:51;;;;;;;2.35;1.75;;;;;;;;;;5033227;28;20214;-88
2023/08/23 14:40:18;;;;;;;2.50;1.48;;;;;;;;;;5033050;28;20279;-86
2023/08/23 14:42:46;;;;;;;5.50;1.50;;;;;;;;;;5055377;28;20226;-88
2023/08/23 14:45:12;;;;;;;2.33;1.65;;;;;;;;;;5049593;28;20219;-87
2023/08/23 14:47:40;;;;;;;4.10;1.90;;;;;;;;;;5010940;28;20678;-86